createdAt,value
2019-03-23T00:01:37.671Z,17.90
2019-03-23T00:04:06.112Z,18.02
2019-03-23T00:06:36.094Z,17.10
2019-03-23T00:09:05.440Z,15.93
2019-03-23T00:11:33.960Z,15.10
2019-03-23T00:14:02.666Z,14.35
2019-03-23T00:16:31.138Z,14.45
2019-03-23T00:18:59.595Z,13.08
2019-03-23T00:21:28.191Z,13.25
2019-03-23T00:23:56.761Z,14.58
2019-03-23T00:26:25.298Z,14.53
2019-03-23T00:28:53.762Z,13.93
2019-03-23T00:31:22.404Z,12.80
2019-03-23T00:33:50.878Z,12.33
2019-03-23T00:36:19.328Z,13.25
2019-03-23T00:38:47.850Z,14.15
2019-03-23T00:41:16.338Z,13.25
2019-03-23T00:43:44.767Z,12.82
2019-03-23T00:46:13.252Z,11.73
2019-03-23T00:48:41.775Z,12.25
2019-03-23T00:51:10.296Z,11.83
2019-03-23T00:53:38.772Z,12.90
2019-03-23T00:56:07.275Z,13.83
2019-03-23T00:58:35.804Z,12.00
2019-03-23T01:01:04.328Z,12.43
2019-03-23T01:03:32.958Z,11.40
2019-03-23T01:06:01.523Z,12.13
2019-03-23T01:08:29.950Z,11.75
2019-03-23T01:10:58.464Z,11.63
2019-03-23T01:13:26.926Z,12.50
2019-03-23T01:15:55.452Z,11.60
2019-03-23T01:18:23.887Z,11.63
2019-03-23T01:20:52.340Z,11.73
2019-03-23T01:23:20.837Z,11.18
2019-03-23T01:25:49.436Z,11.63
2019-03-23T01:28:17.917Z,11.25
2019-03-23T01:30:46.369Z,11.18
2019-03-23T01:33:14.824Z,10.95
2019-03-23T01:35:43.356Z,10.58
2019-03-23T01:38:11.813Z,11.18
2019-03-23T01:40:40.340Z,11.75
2019-03-23T01:43:10.614Z,10.58
2019-03-23T01:45:39.071Z,10.32
2019-03-23T01:48:07.598Z,10.30
2019-03-23T01:50:36.096Z,10.35
2019-03-23T01:53:04.566Z,10.40
2019-03-23T01:55:33.034Z,10.82
2019-03-23T01:58:01.519Z,11.00
2019-03-23T02:00:29.991Z,10.53
2019-03-23T02:02:58.480Z,10.35
2019-03-23T02:05:26.962Z,10.78
2019-03-23T02:07:55.431Z,12.03
2019-03-23T02:10:23.910Z,11.43
2019-03-23T02:12:52.457Z,12.10
2019-03-23T02:15:21.179Z,12.25
2019-03-23T02:17:49.636Z,13.40
2019-03-23T02:20:18.203Z,11.90
2019-03-23T02:22:46.682Z,12.88
2019-03-23T02:25:15.103Z,12.85
2019-03-23T02:27:43.688Z,12.18
2019-03-23T02:30:13.810Z,12.82
2019-03-23T02:32:42.374Z,13.10
2019-03-23T02:35:11.196Z,12.43
2019-03-23T02:37:39.728Z,12.93
2019-03-23T02:40:11.865Z,12.70
2019-03-23T02:42:40.379Z,13.97
2019-03-23T02:45:11.557Z,14.10
2019-03-23T02:47:40.061Z,13.72
2019-03-23T02:50:11.654Z,14.18
2019-03-23T02:52:40.107Z,15.75
2019-03-23T02:55:10.167Z,16.15
2019-03-23T02:57:38.725Z,15.00
2019-03-23T03:00:15.648Z,15.68
2019-03-23T03:02:44.139Z,14.98
2019-03-23T03:05:12.742Z,15.83
2019-03-23T03:07:43.255Z,15.98
2019-03-23T03:10:13.643Z,15.05
2019-03-23T03:12:42.071Z,14.50
2019-03-23T03:15:10.863Z,15.03
2019-03-23T03:17:39.335Z,14.90
2019-03-23T03:20:09.006Z,13.75
2019-03-23T03:22:37.429Z,14.60
2019-03-23T03:25:07.139Z,14.85
2019-03-23T03:27:35.726Z,14.47
2019-03-23T03:30:09.688Z,14.83
2019-03-23T03:32:38.491Z,16.05
2019-03-23T03:35:07.405Z,16.12
2019-03-23T03:37:35.913Z,16.97
2019-03-23T03:40:06.402Z,16.70
2019-03-23T03:42:35.029Z,16.60
2019-03-23T03:45:05.043Z,16.32
2019-03-23T03:47:33.494Z,17.27
2019-03-23T03:50:01.965Z,17.40
2019-03-23T03:52:30.489Z,17.92
2019-03-23T03:54:58.977Z,17.85
2019-03-23T03:57:27.423Z,17.60
2019-03-23T03:59:55.885Z,17.52
2019-03-23T04:02:24.368Z,19.05
2019-03-23T04:04:52.900Z,19.10
2019-03-23T04:07:21.416Z,18.92
2019-03-23T04:09:49.915Z,18.45
2019-03-23T04:12:18.423Z,19.17
2019-03-23T04:14:46.906Z,18.15
2019-03-23T04:17:15.572Z,19.32
2019-03-23T04:19:44.091Z,19.75
2019-03-23T04:22:12.573Z,19.32
2019-03-23T04:24:41.019Z,18.65
2019-03-23T04:27:09.500Z,18.57
2019-03-23T04:29:38.056Z,19.42
2019-03-23T04:32:06.503Z,18.77
2019-03-23T04:34:34.968Z,17.80
2019-03-23T04:37:03.749Z,18.77
2019-03-23T04:39:32.195Z,18.37
2019-03-23T04:42:21.492Z,18.70
2019-03-23T04:44:49.970Z,18.80
2019-03-23T04:47:18.469Z,19.17
2019-03-23T04:49:46.958Z,19.17
2019-03-23T04:52:15.427Z,18.85
2019-03-23T04:54:43.877Z,20.40
2019-03-23T04:57:12.298Z,19.10
2019-03-23T04:59:40.753Z,18.40
2019-03-23T05:02:09.222Z,18.27
2019-03-23T05:04:37.702Z,19.12
2019-03-23T05:07:06.114Z,18.98
2019-03-23T05:09:34.770Z,19.25
2019-03-23T05:12:03.183Z,19.55
2019-03-23T05:14:31.608Z,20.02
2019-03-23T05:17:01.903Z,19.32
2019-03-23T05:19:30.347Z,19.48
2019-03-23T05:21:58.770Z,18.05
2019-03-23T05:24:27.239Z,18.48
2019-03-23T05:26:55.644Z,18.00
2019-03-23T05:29:24.136Z,19.02
2019-03-23T05:31:52.634Z,20.65
2019-03-23T05:34:21.132Z,19.73
2019-03-23T05:36:49.667Z,19.50
2019-03-23T05:39:18.119Z,19.15
2019-03-23T05:41:46.578Z,18.12
2019-03-23T05:44:15.119Z,19.48
2019-03-23T05:46:43.579Z,18.67
2019-03-23T05:49:12.079Z,19.82
2019-03-23T05:51:40.495Z,19.40
2019-03-23T05:54:08.983Z,20.08
2019-03-23T05:56:37.403Z,19.40
2019-03-23T05:59:05.850Z,20.65
2019-03-23T06:01:34.316Z,20.05
2019-03-23T06:04:02.775Z,19.55
2019-03-23T06:06:31.249Z,19.67
2019-03-23T06:08:59.757Z,19.67
2019-03-23T06:11:28.224Z,19.73
2019-03-23T06:13:57.089Z,19.85
2019-03-23T06:16:25.527Z,19.92
2019-03-23T06:18:53.957Z,21.25
2019-03-23T06:21:42.773Z,20.05
2019-03-23T06:24:11.299Z,19.30
2019-03-23T06:26:39.845Z,19.37
2019-03-23T06:29:08.250Z,20.00
2019-03-23T06:31:36.722Z,18.67
2019-03-23T06:34:05.618Z,18.85
2019-03-23T06:36:34.801Z,18.45
2019-03-23T06:39:08.830Z,19.00
2019-03-23T06:41:37.310Z,17.50
2019-03-23T06:44:05.742Z,19.20
2019-03-23T06:46:34.166Z,18.77
2019-03-23T06:49:03.985Z,18.45
2019-03-23T06:51:32.466Z,20.45
2019-03-23T06:54:00.988Z,18.98
2019-03-23T06:56:29.442Z,18.77
2019-03-23T06:58:57.901Z,19.17
2019-03-23T07:01:26.412Z,19.65
2019-03-23T07:03:54.882Z,17.57
2019-03-23T07:06:23.755Z,17.90
2019-03-23T07:08:52.350Z,18.15
2019-03-23T07:11:20.836Z,17.62
2019-03-23T07:13:49.407Z,18.27
2019-03-23T07:16:17.877Z,19.40
2019-03-23T07:18:46.349Z,18.92
2019-03-23T07:21:14.846Z,17.27
2019-03-23T07:23:43.276Z,19.30
2019-03-23T07:26:11.749Z,19.25
2019-03-23T07:28:40.291Z,17.65
2019-03-23T07:31:08.822Z,18.23
2019-03-23T07:33:37.773Z,18.15
2019-03-23T07:36:06.359Z,18.65
2019-03-23T07:38:34.822Z,18.95
2019-03-23T07:41:10.387Z,20.02
2019-03-23T07:43:38.867Z,20.25
2019-03-23T07:46:07.564Z,21.30
2019-03-23T07:48:36.031Z,19.27
2019-03-23T07:51:04.735Z,21.40
2019-03-23T07:53:33.227Z,21.15
2019-03-23T07:56:01.724Z,20.27
2019-03-23T07:58:30.270Z,21.50
2019-03-23T08:00:58.750Z,21.60
2019-03-23T08:03:27.216Z,22.85
2019-03-23T08:05:55.623Z,23.32
2019-03-23T08:08:24.098Z,22.73
2019-03-23T08:10:52.530Z,24.45
2019-03-23T08:13:21.034Z,23.47
2019-03-23T08:15:49.531Z,23.05
2019-03-23T08:18:18.091Z,23.62
2019-03-23T08:20:46.569Z,22.10
2019-03-23T08:23:15.544Z,24.07
2019-03-23T08:25:43.998Z,23.32
2019-03-23T08:28:12.544Z,23.45
2019-03-23T08:30:40.953Z,23.35
2019-03-23T08:33:09.449Z,23.35
2019-03-23T08:35:37.869Z,23.25
2019-03-23T08:38:06.431Z,23.75
2019-03-23T08:40:35.942Z,22.50
2019-03-23T08:43:04.679Z,22.62
2019-03-23T08:45:33.205Z,22.82
2019-03-23T08:48:01.646Z,22.55
2019-03-23T08:50:30.305Z,22.17
2019-03-23T08:52:58.803Z,23.75
2019-03-23T08:55:27.302Z,23.25
2019-03-23T08:57:56.394Z,23.45
2019-03-23T09:00:24.947Z,23.00
2019-03-23T09:02:53.386Z,25.00
2019-03-23T09:05:21.892Z,24.30
2019-03-23T09:07:52.501Z,24.55
2019-03-23T09:10:20.487Z,25.17
2019-03-23T09:12:48.970Z,25.35
2019-03-23T09:15:17.739Z,26.12
2019-03-23T09:17:46.263Z,26.48
2019-03-23T09:20:14.888Z,24.15
2019-03-23T09:22:43.331Z,27.13
2019-03-23T09:25:11.863Z,25.12
2019-03-23T09:27:40.594Z,24.65
2019-03-23T09:30:16.175Z,26.27
2019-03-23T09:32:44.805Z,26.75
2019-03-23T09:35:13.338Z,27.62
2019-03-23T09:37:42.007Z,28.75
2019-03-23T09:40:13.402Z,28.35
2019-03-23T09:42:42.034Z,28.25
2019-03-23T09:45:10.674Z,27.58
2019-03-23T09:47:39.864Z,28.30
2019-03-23T09:50:10.218Z,29.32
2019-03-23T09:52:38.843Z,29.23
2019-03-23T09:55:11.664Z,28.20
2019-03-23T09:57:40.187Z,29.87
2019-03-23T10:00:15.127Z,27.60
2019-03-23T10:02:43.591Z,28.15
2019-03-23T10:05:12.215Z,28.42
2019-03-23T10:07:40.633Z,28.98
2019-03-23T10:10:09.590Z,29.27
2019-03-23T10:12:38.001Z,29.82
2019-03-23T10:15:08.408Z,30.37
2019-03-23T10:17:36.898Z,27.73
2019-03-23T10:20:07.030Z,29.50
2019-03-23T10:22:35.581Z,28.50
2019-03-23T10:25:05.923Z,28.83
2019-03-23T10:27:34.407Z,29.00
2019-03-23T10:30:03.296Z,29.67
2019-03-23T10:32:31.773Z,28.95
2019-03-23T10:35:00.455Z,29.52
2019-03-23T10:37:28.874Z,27.05
2019-03-23T10:39:57.410Z,29.18
2019-03-23T10:42:25.832Z,27.80
2019-03-23T10:44:54.270Z,30.77
2019-03-23T10:47:22.881Z,29.30
2019-03-23T10:49:57.294Z,31.12
2019-03-23T10:52:25.763Z,30.32
2019-03-23T10:54:54.207Z,29.50
2019-03-23T10:57:22.826Z,30.12
2019-03-23T10:59:51.271Z,28.95
2019-03-23T11:02:19.915Z,30.45
2019-03-23T11:04:48.382Z,29.18
2019-03-23T11:07:16.875Z,27.90
2019-03-23T11:09:45.532Z,30.32
2019-03-23T11:12:15.402Z,30.90
2019-03-23T11:14:49.586Z,31.55
2019-03-23T11:17:18.055Z,30.05
2019-03-23T11:19:46.522Z,31.37
2019-03-23T11:22:15.090Z,31.60
2019-03-23T11:24:43.509Z,32.20
2019-03-23T11:27:11.975Z,30.72
2019-03-23T11:29:40.394Z,30.50
2019-03-23T11:32:08.850Z,32.80
2019-03-23T11:34:37.340Z,33.02
2019-03-23T11:37:05.912Z,32.60
2019-03-23T11:39:34.656Z,33.25
2019-03-23T11:42:03.162Z,33.67
2019-03-23T11:44:31.571Z,32.38
2019-03-23T11:47:00.036Z,33.02
2019-03-23T11:49:28.486Z,33.67
2019-03-23T11:51:56.918Z,31.60
2019-03-23T11:54:26.368Z,33.58
2019-03-23T11:56:55.928Z,34.08
2019-03-23T11:59:24.889Z,33.73
2019-03-23T12:01:53.413Z,33.35
2019-03-23T12:04:21.866Z,34.67
2019-03-23T12:06:50.278Z,35.33
2019-03-23T12:09:18.750Z,32.78
2019-03-23T12:11:47.186Z,34.80
2019-03-23T12:14:15.671Z,34.67
2019-03-23T12:16:44.175Z,32.93
2019-03-23T12:19:12.636Z,34.73
2019-03-23T12:21:41.119Z,35.48
2019-03-23T12:24:09.543Z,36.40
2019-03-23T12:26:38.106Z,36.45
2019-03-23T12:29:06.554Z,36.23
2019-03-23T12:31:35.115Z,36.65
2019-03-23T12:34:03.668Z,36.20
2019-03-23T12:36:32.172Z,33.85
2019-03-23T12:39:00.876Z,37.25
2019-03-23T12:41:29.852Z,38.02
2019-03-23T12:43:58.277Z,39.05
2019-03-23T12:46:26.741Z,37.85
2019-03-23T12:48:55.175Z,38.05
2019-03-23T12:51:23.762Z,36.20
2019-03-23T12:53:52.259Z,36.42
2019-03-23T12:56:20.783Z,36.00
2019-03-23T12:58:49.257Z,37.13
2019-03-23T13:01:17.703Z,39.55
2019-03-23T13:03:46.212Z,35.88
2019-03-23T13:06:14.674Z,36.60
2019-03-23T13:08:43.353Z,35.73
2019-03-23T13:11:11.842Z,39.40
2019-03-23T13:13:40.349Z,36.23
2019-03-23T13:16:10.376Z,41.73
2019-03-23T13:18:38.846Z,38.90
2019-03-23T13:21:07.331Z,39.35
2019-03-23T13:23:35.769Z,41.37
2019-03-23T13:26:04.281Z,39.05
2019-03-23T13:28:32.815Z,38.40
2019-03-23T13:31:01.291Z,39.42
2019-03-23T13:33:29.760Z,39.25
2019-03-23T13:36:05.866Z,40.58
2019-03-23T13:38:34.321Z,39.88
2019-03-23T13:41:02.781Z,38.10
2019-03-23T13:43:31.244Z,35.85
2019-03-23T13:45:59.727Z,37.10
2019-03-23T13:48:28.339Z,37.58
2019-03-23T13:50:56.857Z,40.65
2019-03-23T13:53:25.338Z,38.65
2019-03-23T13:55:53.814Z,42.70
2019-03-23T13:58:22.320Z,41.37
2019-03-23T14:00:50.783Z,43.60
2019-03-23T14:03:19.360Z,42.30
2019-03-23T14:05:47.827Z,42.17
2019-03-23T14:08:16.287Z,39.53
2019-03-23T14:10:44.763Z,43.45
2019-03-23T14:13:13.195Z,44.27
2019-03-23T14:15:41.755Z,43.17
2019-03-23T14:18:10.233Z,45.17
2019-03-23T14:20:38.644Z,44.67
2019-03-23T14:23:07.127Z,46.48
2019-03-23T14:25:35.600Z,44.98
2019-03-23T14:28:04.216Z,45.05
2019-03-23T14:30:32.677Z,44.40
2019-03-23T14:33:01.113Z,44.30
2019-03-23T14:35:29.560Z,44.73
2019-03-23T14:37:58.025Z,45.00
2019-03-23T14:40:26.521Z,45.83
2019-03-23T14:42:55.011Z,46.33
2019-03-23T14:45:23.544Z,46.90
2019-03-23T14:47:51.966Z,45.80
2019-03-23T14:50:20.473Z,46.88
2019-03-23T14:52:49.031Z,47.08
2019-03-23T14:55:17.614Z,46.80
2019-03-23T14:57:46.969Z,46.75
2019-03-23T15:00:18.535Z,46.80
2019-03-23T15:02:46.952Z,46.42
2019-03-23T15:05:15.434Z,47.78
2019-03-23T15:07:43.900Z,45.60
2019-03-23T15:10:12.616Z,45.85
2019-03-23T15:12:41.050Z,46.30
2019-03-23T15:15:09.757Z,46.10
2019-03-23T15:17:48.220Z,48.25
2019-03-23T15:20:08.529Z,46.28
2019-03-23T15:22:37.047Z,47.23
2019-03-23T15:25:09.085Z,48.60
2019-03-23T15:27:37.582Z,49.95
2019-03-23T15:30:09.577Z,50.33
2019-03-23T15:32:38.187Z,50.45
2019-03-23T15:35:11.577Z,52.10
2019-03-23T15:37:40.933Z,51.75
2019-03-23T15:40:10.262Z,53.15
2019-03-23T15:42:38.983Z,50.20
2019-03-23T15:45:15.378Z,50.38
2019-03-23T15:47:45.294Z,51.20
2019-03-23T15:50:13.941Z,53.10
2019-03-23T15:52:42.422Z,51.70
2019-03-23T15:55:11.032Z,53.90
2019-03-23T15:57:39.486Z,53.20
2019-03-23T16:00:10.410Z,52.35
2019-03-23T16:02:38.908Z,50.78
2019-03-23T16:05:08.470Z,52.60
2019-03-23T16:07:37.022Z,51.48
2019-03-23T16:10:09.004Z,52.80
2019-03-23T16:12:37.910Z,54.00
2019-03-23T16:15:14.603Z,52.65
2019-03-23T16:17:43.202Z,54.85
2019-03-23T16:20:12.175Z,54.83
2019-03-23T16:22:41.129Z,56.00
2019-03-23T16:25:10.626Z,58.17
2019-03-23T16:27:39.063Z,56.60
2019-03-23T16:30:10.311Z,56.75
2019-03-23T16:32:38.813Z,55.25
2019-03-23T16:35:10.324Z,58.13
2019-03-23T16:37:38.842Z,55.83
2019-03-23T16:40:10.840Z,57.17
2019-03-23T16:42:45.574Z,55.28
2019-03-23T16:45:12.409Z,54.20
2019-03-23T16:47:40.949Z,56.75
2019-03-23T16:50:09.808Z,55.38
2019-03-23T16:52:38.902Z,54.77
2019-03-23T16:55:09.165Z,55.83
2019-03-23T16:57:37.627Z,57.48
2019-03-23T17:00:07.636Z,57.55
2019-03-23T17:02:36.156Z,55.45
2019-03-23T17:05:05.602Z,55.00
2019-03-23T17:07:34.154Z,54.15
2019-03-23T17:10:02.593Z,55.63
2019-03-23T17:12:31.024Z,55.08
2019-03-23T17:14:59.546Z,53.50
2019-03-23T17:17:28.010Z,55.10
2019-03-23T17:19:56.465Z,55.40
2019-03-23T17:22:24.962Z,53.23
2019-03-23T17:24:53.400Z,54.20
2019-03-23T17:27:21.848Z,54.58
2019-03-23T17:29:50.388Z,53.83
2019-03-23T17:32:18.923Z,53.78
2019-03-23T17:34:47.386Z,54.93
2019-03-23T17:37:16.130Z,55.35
2019-03-23T17:39:44.552Z,54.58
2019-03-23T17:42:13.153Z,55.95
2019-03-23T17:44:42.415Z,54.13
2019-03-23T17:47:10.945Z,53.05
2019-03-23T17:49:39.551Z,54.67
2019-03-23T17:52:07.982Z,53.70
2019-03-23T17:54:36.436Z,54.33
2019-03-23T17:57:04.872Z,53.65
2019-03-23T17:59:33.377Z,55.92
2019-03-23T18:02:01.863Z,53.90
2019-03-23T18:04:30.369Z,51.15
2019-03-23T18:06:58.894Z,52.20
2019-03-23T18:09:27.378Z,54.20
2019-03-23T18:11:55.862Z,53.20
2019-03-23T18:14:24.494Z,51.73
2019-03-23T18:16:53.035Z,54.27
2019-03-23T18:19:21.600Z,57.67
2019-03-23T18:21:50.034Z,52.88
2019-03-23T18:24:20.133Z,51.10
2019-03-23T18:26:48.587Z,50.25
2019-03-23T18:29:17.053Z,51.90
2019-03-23T18:31:45.506Z,60.05
2019-03-23T18:34:13.997Z,56.05
2019-03-23T18:36:42.477Z,57.98
2019-03-23T18:39:11.038Z,61.45
2019-03-23T18:41:39.470Z,60.35
2019-03-23T18:44:15.732Z,60.35
2019-03-23T18:46:38.542Z,60.40
2019-03-23T18:49:07.117Z,59.23
2019-03-23T18:51:35.610Z,60.52
2019-03-23T18:54:04.128Z,57.33
2019-03-23T18:56:32.587Z,58.23
2019-03-23T18:59:01.062Z,57.83
2019-03-23T19:01:29.614Z,55.28
2019-03-23T19:03:58.147Z,56.50
2019-03-23T19:06:26.599Z,56.58
2019-03-23T19:08:55.097Z,56.88
2019-03-23T19:11:26.396Z,58.25
2019-03-23T19:13:55.008Z,56.63
2019-03-23T19:16:23.485Z,57.88
2019-03-23T19:18:51.990Z,53.80
2019-03-23T19:21:20.450Z,52.80
2019-03-23T19:23:48.934Z,49.40
2019-03-23T19:26:17.437Z,49.60
2019-03-23T19:28:46.148Z,47.08
2019-03-23T19:31:14.594Z,48.85
2019-03-23T19:33:43.037Z,46.85
2019-03-23T19:36:13.148Z,45.92
2019-03-23T19:38:41.601Z,43.55
2019-03-23T19:41:10.107Z,44.05
2019-03-23T19:43:48.426Z,43.63
2019-03-23T19:46:08.946Z,43.40
2019-03-23T19:48:37.447Z,41.85
2019-03-23T19:51:06.015Z,41.13
2019-03-23T19:53:34.543Z,38.48
2019-03-23T19:56:03.031Z,39.65
2019-03-23T19:58:31.491Z,39.00
2019-03-23T20:00:59.973Z,38.33
2019-03-23T20:03:28.467Z,38.33
2019-03-23T20:05:56.930Z,37.25
2019-03-23T20:08:25.645Z,38.45
2019-03-23T20:10:54.149Z,37.00
2019-03-23T20:13:22.771Z,38.38
2019-03-23T20:15:51.354Z,38.13
2019-03-23T20:18:19.890Z,36.77
2019-03-23T20:20:48.402Z,36.65
2019-03-23T20:23:16.892Z,37.17
2019-03-23T20:25:45.486Z,36.80
2019-03-23T20:28:13.975Z,37.45
2019-03-23T20:30:42.652Z,34.45
2019-03-23T20:33:19.074Z,35.70
2019-03-23T20:35:41.320Z,37.23
2019-03-23T20:38:09.854Z,36.10
2019-03-23T20:40:38.292Z,35.95
2019-03-23T20:43:07.446Z,33.92
2019-03-23T20:45:35.890Z,36.93
2019-03-23T20:48:06.720Z,36.13
2019-03-23T20:50:35.853Z,36.23
2019-03-23T20:53:04.482Z,35.90
2019-03-23T20:55:33.014Z,33.65
2019-03-23T20:58:01.442Z,35.95
2019-03-23T21:00:32.478Z,33.95
2019-03-23T21:03:05.771Z,34.95
2019-03-23T21:05:36.637Z,34.08
2019-03-23T21:08:05.044Z,33.45
2019-03-23T21:10:37.071Z,35.10
2019-03-23T21:13:09.188Z,34.90
2019-03-23T21:15:43.324Z,33.55
2019-03-23T21:18:19.943Z,34.43
2019-03-23T21:20:51.245Z,32.83
2019-03-23T21:23:19.756Z,35.75
2019-03-23T21:25:56.851Z,32.45
2019-03-23T21:28:25.542Z,34.85
2019-03-23T21:30:54.351Z,35.63
2019-03-23T21:33:22.818Z,36.00
2019-03-23T21:35:51.317Z,34.38
2019-03-23T21:38:19.772Z,35.75
2019-03-23T21:40:48.240Z,35.60
2019-03-23T21:43:16.705Z,35.23
2019-03-23T21:45:45.347Z,37.25
2019-03-23T21:48:13.794Z,36.13
2019-03-23T21:50:47.371Z,36.38
2019-03-23T21:53:12.697Z,36.05
2019-03-23T21:55:41.173Z,36.15
2019-03-23T21:58:09.592Z,37.60
2019-03-23T22:00:38.153Z,35.95
2019-03-23T22:03:06.665Z,39.42
2019-03-23T22:05:35.242Z,35.13
2019-03-23T22:08:03.691Z,36.83
2019-03-23T22:10:32.123Z,37.58
2019-03-23T22:13:19.943Z,36.80
2019-03-23T22:15:48.502Z,35.85
2019-03-23T22:18:17.230Z,35.88
2019-03-23T22:20:45.716Z,37.25
2019-03-23T22:23:14.356Z,38.15
2019-03-23T22:25:45.689Z,36.60
2019-03-23T22:28:14.155Z,38.65
2019-03-23T22:30:42.594Z,38.83
2019-03-23T22:33:11.063Z,37.35
2019-03-23T22:35:40.619Z,38.80
2019-03-23T22:38:09.123Z,37.60
2019-03-23T22:40:37.587Z,39.00
2019-03-23T22:43:05.998Z,38.10
2019-03-23T22:45:35.827Z,38.80
2019-03-23T22:48:04.498Z,39.08
2019-03-23T22:50:33.033Z,38.38
2019-03-23T22:53:01.505Z,40.33
2019-03-23T22:55:30.023Z,38.80
2019-03-23T22:57:58.542Z,38.65
2019-03-23T23:00:43.944Z,40.23
2019-03-23T23:03:13.699Z,38.92
2019-03-23T23:05:42.290Z,40.05
2019-03-23T23:08:10.750Z,38.83
2019-03-23T23:10:39.286Z,39.23
2019-03-23T23:13:07.842Z,39.00
2019-03-23T23:15:55.593Z,39.38
2019-03-23T23:18:24.119Z,41.15
2019-03-23T23:20:52.578Z,41.80
2019-03-23T23:23:21.108Z,40.10
2019-03-23T23:25:49.551Z,39.40
2019-03-23T23:28:17.999Z,40.50
2019-03-23T23:30:46.673Z,40.58
2019-03-23T23:33:15.238Z,40.12
2019-03-23T23:35:43.736Z,40.45
2019-03-23T23:38:12.205Z,41.63
2019-03-23T23:40:40.722Z,41.65
2019-03-23T23:43:09.179Z,40.73
2019-03-23T23:45:37.668Z,42.65
2019-03-23T23:48:06.246Z,39.73
2019-03-23T23:50:34.723Z,40.12
2019-03-23T23:53:03.229Z,40.43
2019-03-23T23:55:31.964Z,40.65
2019-03-23T23:58:00.493Z,40.25
